Houghton County Memorial Airport Hancock US
ICAO: KCMX
IATA: CMX
Category: Medium
Scheduled Services: Yes

Elevation: 1095 ft
TransAlt. 18000 ft.

Airport Communications:
ASOS:125.675
MINNEAPOLIS CNTR:127.2
GREEN BAY RDO:122.525
CTAF/UNICOM:122.7

KCMX Zoom In..

If Map Doesn't Load, Click Here

Runways:

(A) RW 07 length 5201 ft width 100 ft
---- / hdg 69

(B) RW 13 length 6500 ft width 150 ft
---- / hdg 133

(C) RW 25 length 5201 ft width 100 ft
---- / hdg 249

(D) RW 31 length 6500 ft width 150 ft
ILS 110.30 / hdg 313

Location; KCMX
Day. 23 / Time. 09.00 Zulu
* Altimeter: 30.19
* Temperature: 06° c. 42.8°f.
* Wind from: 070° Speed 10 kn with Gusts up to 18 kn.
Dewpoint: 03° c.
Visibility: 10 Statute Miles.
Clouds: Scattered 800 ft.
Clouds: Overcast 2200 ft.

KCMX 230900Z AUTO 07010G18KT 10SM SCT008 OVC022 06/03 A3019 RMK AO2 T00610033


Wind From 070°
Speed 10 kn.

 
 
jpsmedia.com for Web Design worldairports.se 2018   terms of use